createdAt,value
2022-11-04T00:02:17.736Z,96466.83
2022-11-04T00:12:27.610Z,96450.66
2022-11-04T00:22:50.500Z,96438.95
2022-11-04T00:33:12.900Z,96421.59
2022-11-04T00:43:16.856Z,96402.68
2022-11-04T00:53:20.424Z,96380.10
2022-11-04T01:03:24.409Z,96374.21
2022-11-04T01:13:28.362Z,96355.34
2022-11-04T01:23:34.390Z,96338.72
2022-11-04T01:33:39.288Z,96327.27
2022-11-04T01:43:48.879Z,96306.82
2022-11-04T01:53:55.634Z,96300.77
2022-11-04T02:04:20.462Z,96293.45
2022-11-04T02:14:24.331Z,96280.95
2022-11-04T02:24:43.550Z,96269.45
2022-11-04T02:35:11.588Z,96270.52
2022-11-04T02:45:27.346Z,96263.22
2022-11-04T02:55:38.359Z,96263.86
2022-11-04T03:05:48.256Z,96258.42
2022-11-04T03:15:58.832Z,96240.55
2022-11-04T03:26:13.385Z,96245.80
2022-11-04T03:36:18.281Z,96255.90
2022-11-04T03:46:23.081Z,96253.34
2022-11-04T03:56:45.167Z,96237.31
2022-11-04T04:06:53.794Z,96217.98
2022-11-04T04:17:00.332Z,96208.04
2022-11-04T04:27:23.270Z,96201.79
2022-11-04T04:37:28.165Z,96189.62
2022-11-04T04:47:45.175Z,96161.78
2022-11-04T04:57:49.418Z,96132.16
2022-11-04T05:07:54.218Z,96116.54
2022-11-04T05:18:01.346Z,96107.77
2022-11-04T05:28:06.099Z,96115.81
2022-11-04T05:38:10.117Z,96120.38
2022-11-04T05:48:14.080Z,96131.48
2022-11-04T05:58:18.128Z,96132.13
2022-11-04T06:08:21.841Z,96132.79
2022-11-04T06:18:25.892Z,96140.05
2022-11-04T06:28:29.757Z,96154.60
2022-11-04T06:38:36.098Z,96157.91
2022-11-04T06:48:40.269Z,96156.92
2022-11-04T06:58:44.958Z,96156.12
2022-11-04T07:08:52.320Z,96146.79
2022-11-04T07:18:55.975Z,96128.40
2022-11-04T07:29:01.395Z,96121.29
2022-11-04T07:39:07.066Z,96110.02
2022-11-04T07:49:10.655Z,96088.20
2022-11-04T07:59:14.830Z,96077.02
2022-11-04T08:09:18.740Z,96069.58
2022-11-04T08:19:22.480Z,96061.15
2022-11-04T08:29:26.759Z,96049.77
2022-11-04T08:39:30.840Z,96027.35
2022-11-04T08:49:39.755Z,96015.61
2022-11-04T08:59:43.785Z,96011.91
2022-11-04T09:09:47.452Z,96004.48
2022-11-04T09:19:51.627Z,95998.60
2022-11-04T09:29:55.599Z,95986.16
2022-11-04T09:39:59.558Z,95976.48
2022-11-04T09:50:04.148Z,95953.31
2022-11-04T10:00:15.305Z,95945.31
2022-11-04T10:10:25.602Z,95941.67
2022-11-04T10:20:43.769Z,95911.81
2022-11-04T10:30:51.052Z,95909.14
2022-11-04T10:40:56.254Z,95906.04
2022-11-04T10:51:01.146Z,95897.48
2022-11-04T11:01:30.084Z,95900.45
2022-11-04T11:11:47.789Z,95904.46
2022-11-04T11:21:54.787Z,95892.96
2022-11-04T11:32:01.346Z,95885.29
2022-11-04T11:42:06.850Z,95878.05
2022-11-04T11:52:22.799Z,95863.23
2022-11-04T12:02:36.346Z,95853.73
2022-11-04T12:12:40.609Z,95849.19
2022-11-04T12:23:14.387Z,95849.52
2022-11-04T12:33:38.060Z,95845.75
2022-11-04T12:43:56.647Z,95844.75
2022-11-04T12:54:04.501Z,95837.48
2022-11-04T13:04:17.683Z,95828.21
2022-11-04T13:14:29.900Z,95827.67
2022-11-04T13:24:39.239Z,95820.27
2022-11-04T13:35:08.900Z,95827.34
2022-11-04T13:45:16.357Z,95829.21
2022-11-04T13:55:22.037Z,95837.71
2022-11-04T14:05:29.289Z,95843.85
2022-11-04T14:16:00.990Z,95848.98
2022-11-04T14:26:13.802Z,95848.20
2022-11-04T14:36:17.658Z,95847.43
2022-11-04T14:46:25.652Z,95854.17
2022-11-04T14:56:29.932Z,95846.04
2022-11-04T15:06:53.242Z,95844.77
2022-11-04T15:16:59.607Z,95854.17
2022-11-04T15:27:06.476Z,95852.92
2022-11-04T15:37:16.291Z,95851.48
2022-11-04T15:47:30.839Z,95852.57
2022-11-04T15:57:41.313Z,95845.60
2022-11-04T16:07:51.851Z,95844.08
2022-11-04T16:17:55.717Z,95845.95
2022-11-04T16:28:00.738Z,95832.49
2022-11-04T16:38:05.427Z,95822.58
2022-11-04T16:48:12.540Z,95838.62
2022-11-04T16:58:18.758Z,95841.48
2022-11-04T17:08:24.026Z,95835.67
2022-11-04T17:18:33.215Z,95844.82
2022-11-04T17:28:39.763Z,95822.20
2022-11-04T17:38:44.576Z,95832.04
2022-11-04T17:48:49.273Z,95820.77
2022-11-04T17:58:54.367Z,95828.85
2022-11-04T18:09:00.055Z,95815.55
2022-11-04T18:19:04.305Z,95802.02
2022-11-04T18:29:10.504Z,95801.86
2022-11-04T18:39:19.981Z,95799.95
2022-11-04T18:49:27.840Z,95797.40
2022-11-04T18:59:33.148Z,95808.28
2022-11-04T19:09:46.798Z,95811.70
2022-11-04T19:19:52.974Z,95828.16
2022-11-04T19:29:58.465Z,95850.43
2022-11-04T19:40:05.846Z,95851.80
2022-11-04T19:50:12.139Z,95851.92
2022-11-04T20:00:17.449Z,95852.49
2022-11-04T20:10:24.205Z,95854.34
2022-11-04T20:20:29.830Z,95853.21
2022-11-04T20:30:39.599Z,95859.73
2022-11-04T20:40:45.574Z,95862.52
2022-11-04T20:50:50.825Z,95875.56
2022-11-04T21:00:55.388Z,95872.99
2022-11-04T21:11:00.514Z,95887.23
2022-11-04T21:21:06.888Z,95900.58
2022-11-04T21:31:13.333Z,95908.73
2022-11-04T21:41:26.473Z,95907.70
2022-11-04T21:51:32.695Z,95902.45
2022-11-04T22:01:36.565Z,95909.89
2022-11-04T22:11:41.342Z,95920.11
2022-11-04T22:21:46.424Z,95912.13
2022-11-04T22:31:50.229Z,95927.52
2022-11-04T22:41:54.282Z,95931.23
2022-11-04T22:51:58.039Z,95934.97
2022-11-04T23:02:02.035Z,95937.48
2022-11-04T23:12:24.816Z,95931.31
2022-11-04T23:22:47.209Z,95936.14
2022-11-04T23:32:52.964Z,95930.55
2022-11-04T23:42:56.889Z,95938.39
2022-11-04T23:53:20.824Z,95945.60
